sensor_id;sensor_type;location;lat;lon;timestamp;P1;durP1;ratioP1;P2;durP2;ratioP2
11763;SDS011;5939;56.522;14.950;2023-07-29T00:01:23;2.20;;;1.47;;
11763;SDS011;5939;56.522;14.950;2023-07-29T00:03:48;2.33;;;1.43;;
11763;SDS011;5939;56.522;14.950;2023-07-29T00:06:14;1.80;;;1.70;;
11763;SDS011;5939;56.522;14.950;2023-07-29T00:08:40;1.60;;;1.47;;
11763;SDS011;5939;56.522;14.950;2023-07-29T00:11:05;2.43;;;1.50;;
11763;SDS011;5939;56.522;14.950;2023-07-29T00:13:31;2.30;;;1.40;;
11763;SDS011;5939;56.522;14.950;2023-07-29T00:15:56;1.83;;;1.53;;
11763;SDS011;5939;56.522;14.950;2023-07-29T00:18:22;3.20;;;1.43;;
11763;SDS011;5939;56.522;14.950;2023-07-29T00:20:48;2.83;;;1.47;;
11763;SDS011;5939;56.522;14.950;2023-07-29T00:23:15;1.87;;;1.50;;
11763;SDS011;5939;56.522;14.950;2023-07-29T00:25:43;3.27;;;1.40;;
11763;SDS011;5939;56.522;14.950;2023-07-29T00:28:11;1.40;;;1.30;;
11763;SDS011;5939;56.522;14.950;2023-07-29T00:30:37;2.53;;;1.60;;
11763;SDS011;5939;56.522;14.950;2023-07-29T00:33:03;1.50;;;1.40;;
11763;SDS011;5939;56.522;14.950;2023-07-29T00:35:28;2.77;;;1.37;;
11763;SDS011;5939;56.522;14.950;2023-07-29T00:37:54;1.47;;;1.37;;
11763;SDS011;5939;56.522;14.950;2023-07-29T00:40:20;1.67;;;1.57;;
11763;SDS011;5939;56.522;14.950;2023-07-29T00:42:47;1.53;;;1.43;;
11763;SDS011;5939;56.522;14.950;2023-07-29T00:45:14;1.57;;;1.47;;
11763;SDS011;5939;56.522;14.950;2023-07-29T00:47:40;3.00;;;1.67;;
11763;SDS011;5939;56.522;14.950;2023-07-29T00:50:07;1.83;;;1.50;;
11763;SDS011;5939;56.522;14.950;2023-07-29T00:52:36;2.97;;;1.53;;
11763;SDS011;5939;56.522;14.950;2023-07-29T00:55:01;1.90;;;1.30;;
11763;SDS011;5939;56.522;14.950;2023-07-29T00:57:28;3.77;;;1.60;;
11763;SDS011;5939;56.522;14.950;2023-07-29T00:59:55;1.60;;;1.50;;
11763;SDS011;5939;56.522;14.950;2023-07-29T01:02:21;1.50;;;1.30;;
11763;SDS011;5939;56.522;14.950;2023-07-29T01:04:53;1.50;;;1.33;;
11763;SDS011;5939;56.522;14.950;2023-07-29T01:07:25;2.40;;;1.53;;
11763;SDS011;5939;56.522;14.950;2023-07-29T01:10:01;1.67;;;1.50;;
11763;SDS011;5939;56.522;14.950;2023-07-29T01:18:07;2.53;;;1.60;;
11763;SDS011;5939;56.522;14.950;2023-07-29T01:20:37;1.50;;;1.40;;
11763;SDS011;5939;56.522;14.950;2023-07-29T01:23:05;2.80;;;1.50;;
11763;SDS011;5939;56.522;14.950;2023-07-29T01:25:30;1.90;;;1.40;;
11763;SDS011;5939;56.522;14.950;2023-07-29T01:27:56;4.07;;;1.90;;
11763;SDS011;5939;56.522;14.950;2023-07-29T01:30:23;1.63;;;1.50;;
11763;SDS011;5939;56.522;14.950;2023-07-29T01:32:58;2.07;;;1.77;;
11763;SDS011;5939;56.522;14.950;2023-07-29T01:35:33;2.27;;;1.50;;
11763;SDS011;5939;56.522;14.950;2023-07-29T01:38:05;1.37;;;1.23;;
11763;SDS011;5939;56.522;14.950;2023-07-29T01:40:35;2.10;;;1.73;;
11763;SDS011;5939;56.522;14.950;2023-07-29T01:43:01;2.43;;;1.40;;
11763;SDS011;5939;56.522;14.950;2023-07-29T01:45:27;2.33;;;1.70;;
11763;SDS011;5939;56.522;14.950;2023-07-29T01:47:56;1.80;;;1.53;;
11763;SDS011;5939;56.522;14.950;2023-07-29T01:50:22;2.17;;;1.53;;
11763;SDS011;5939;56.522;14.950;2023-07-29T01:52:48;2.07;;;1.37;;
11763;SDS011;5939;56.522;14.950;2023-07-29T01:55:13;1.57;;;1.40;;
11763;SDS011;5939;56.522;14.950;2023-07-29T01:57:39;1.87;;;1.50;;
11763;SDS011;5939;56.522;14.950;2023-07-29T02:00:05;3.30;;;1.80;;
11763;SDS011;5939;56.522;14.950;2023-07-29T02:02:31;2.37;;;1.67;;
11763;SDS011;5939;56.522;14.950;2023-07-29T02:04:57;1.93;;;1.63;;
11763;SDS011;5939;56.522;14.950;2023-07-29T02:07:22;1.60;;;1.50;;
11763;SDS011;5939;56.522;14.950;2023-07-29T02:09:48;2.27;;;1.70;;
11763;SDS011;5939;56.522;14.950;2023-07-29T02:12:13;1.90;;;1.70;;
11763;SDS011;5939;56.522;14.950;2023-07-29T02:14:39;4.67;;;1.63;;
11763;SDS011;5939;56.522;14.950;2023-07-29T02:17:05;2.03;;;1.50;;
11763;SDS011;5939;56.522;14.950;2023-07-29T02:19:30;1.73;;;1.50;;
11763;SDS011;5939;56.522;14.950;2023-07-29T02:21:56;1.60;;;1.50;;
11763;SDS011;5939;56.522;14.950;2023-07-29T02:24:22;1.80;;;1.60;;
11763;SDS011;5939;56.522;14.950;2023-07-29T02:26:47;2.30;;;1.73;;
11763;SDS011;5939;56.522;14.950;2023-07-29T02:29:13;1.40;;;1.30;;
11763;SDS011;5939;56.522;14.950;2023-07-29T02:31:38;2.00;;;1.80;;
11763;SDS011;5939;56.522;14.950;2023-07-29T02:34:04;1.80;;;1.50;;
11763;SDS011;5939;56.522;14.950;2023-07-29T02:36:30;2.87;;;1.50;;
11763;SDS011;5939;56.522;14.950;2023-07-29T02:38:55;2.00;;;1.50;;
11763;SDS011;5939;56.522;14.950;2023-07-29T02:41:21;2.50;;;1.50;;
11763;SDS011;5939;56.522;14.950;2023-07-29T02:43:50;1.77;;;1.60;;
11763;SDS011;5939;56.522;14.950;2023-07-29T02:46:16;1.63;;;1.53;;
11763;SDS011;5939;56.522;14.950;2023-07-29T02:48:42;2.17;;;1.70;;
11763;SDS011;5939;56.522;14.950;2023-07-29T02:51:09;1.70;;;1.60;;
11763;SDS011;5939;56.522;14.950;2023-07-29T02:53:34;1.50;;;1.40;;
11763;SDS011;5939;56.522;14.950;2023-07-29T02:56:02;2.00;;;1.90;;
11763;SDS011;5939;56.522;14.950;2023-07-29T02:58:28;2.03;;;1.83;;
11763;SDS011;5939;56.522;14.950;2023-07-29T03:00:59;1.53;;;1.43;;
11763;SDS011;5939;56.522;14.950;2023-07-29T03:03:27;1.80;;;1.40;;
11763;SDS011;5939;56.522;14.950;2023-07-29T03:05:59;2.23;;;1.70;;
11763;SDS011;5939;56.522;14.950;2023-07-29T03:08:32;2.00;;;1.43;;
11763;SDS011;5939;56.522;14.950;2023-07-29T03:10:58;1.90;;;1.70;;
11763;SDS011;5939;56.522;14.950;2023-07-29T03:13:29;1.93;;;1.67;;
11763;SDS011;5939;56.522;14.950;2023-07-29T03:16:03;2.10;;;1.70;;
11763;SDS011;5939;56.522;14.950;2023-07-29T03:18:37;2.33;;;1.50;;
11763;SDS011;5939;56.522;14.950;2023-07-29T03:21:03;2.33;;;1.60;;
11763;SDS011;5939;56.522;14.950;2023-07-29T03:23:29;1.63;;;1.53;;
11763;SDS011;5939;56.522;14.950;2023-07-29T03:25:56;1.93;;;1.73;;
11763;SDS011;5939;56.522;14.950;2023-07-29T03:28:27;1.93;;;1.73;;
11763;SDS011;5939;56.522;14.950;2023-07-29T03:30:54;1.73;;;1.63;;
11763;SDS011;5939;56.522;14.950;2023-07-29T03:33:23;1.93;;;1.60;;
11763;SDS011;5939;56.522;14.950;2023-07-29T03:35:50;1.70;;;1.60;;
11763;SDS011;5939;56.522;14.950;2023-07-29T03:38:16;2.00;;;1.73;;
11763;SDS011;5939;56.522;14.950;2023-07-29T03:40:41;2.27;;;2.00;;
11763;SDS011;5939;56.522;14.950;2023-07-29T03:43:08;1.70;;;1.60;;
11763;SDS011;5939;56.522;14.950;2023-07-29T03:45:34;2.07;;;1.50;;
11763;SDS011;5939;56.522;14.950;2023-07-29T03:48:01;1.90;;;1.70;;
11763;SDS011;5939;56.522;14.950;2023-07-29T03:50:27;2.23;;;1.70;;
11763;SDS011;5939;56.522;14.950;2023-07-29T03:52:53;1.67;;;1.50;;
11763;SDS011;5939;56.522;14.950;2023-07-29T03:55:19;1.97;;;1.80;;
11763;SDS011;5939;56.522;14.950;2023-07-29T03:57:45;1.97;;;1.77;;
11763;SDS011;5939;56.522;14.950;2023-07-29T04:00:11;2.10;;;1.90;;
11763;SDS011;5939;56.522;14.950;2023-07-29T04:02:37;1.63;;;1.40;;
11763;SDS011;5939;56.522;14.950;2023-07-29T04:05:04;2.17;;;1.53;;
11763;SDS011;5939;56.522;14.950;2023-07-29T04:07:31;1.77;;;1.67;;
11763;SDS011;5939;56.522;14.950;2023-07-29T04:09:56;1.73;;;1.53;;
11763;SDS011;5939;56.522;14.950;2023-07-29T04:12:23;1.83;;;1.67;;
11763;SDS011;5939;56.522;14.950;2023-07-29T04:14:48;2.37;;;1.50;;
11763;SDS011;5939;56.522;14.950;2023-07-29T04:17:14;2.10;;;1.90;;
11763;SDS011;5939;56.522;14.950;2023-07-29T04:19:40;1.70;;;1.60;;
11763;SDS011;5939;56.522;14.950;2023-07-29T04:22:05;1.67;;;1.57;;
11763;SDS011;5939;56.522;14.950;2023-07-29T04:24:31;2.00;;;1.80;;
11763;SDS011;5939;56.522;14.950;2023-07-29T04:26:57;3.53;;;1.70;;
11763;SDS011;5939;56.522;14.950;2023-07-29T04:29:23;1.77;;;1.67;;
11763;SDS011;5939;56.522;14.950;2023-07-29T04:31:51;1.70;;;1.60;;
11763;SDS011;5939;56.522;14.950;2023-07-29T04:34:18;1.73;;;1.63;;
11763;SDS011;5939;56.522;14.950;2023-07-29T04:36:44;2.00;;;1.80;;
11763;SDS011;5939;56.522;14.950;2023-07-29T04:39:10;2.60;;;2.10;;
11763;SDS011;5939;56.522;14.950;2023-07-29T04:41:36;1.80;;;1.50;;
11763;SDS011;5939;56.522;14.950;2023-07-29T04:44:02;1.70;;;1.60;;
11763;SDS011;5939;56.522;14.950;2023-07-29T04:46:28;1.70;;;1.60;;
11763;SDS011;5939;56.522;14.950;2023-07-29T04:48:53;2.30;;;1.77;;
11763;SDS011;5939;56.522;14.950;2023-07-29T04:51:19;1.90;;;1.80;;
11763;SDS011;5939;56.522;14.950;2023-07-29T04:53:44;2.20;;;2.00;;
11763;SDS011;5939;56.522;14.950;2023-07-29T04:56:10;2.07;;;1.87;;
11763;SDS011;5939;56.522;14.950;2023-07-29T04:58:36;1.90;;;1.80;;
11763;SDS011;5939;56.522;14.950;2023-07-29T05:01:02;2.20;;;2.00;;
11763;SDS011;5939;56.522;14.950;2023-07-29T05:03:28;2.80;;;1.80;;
11763;SDS011;5939;56.522;14.950;2023-07-29T05:05:54;1.97;;;1.70;;
11763;SDS011;5939;56.522;14.950;2023-07-29T05:08:21;1.77;;;1.67;;
11763;SDS011;5939;56.522;14.950;2023-07-29T05:10:50;2.90;;;1.50;;
11763;SDS011;5939;56.522;14.950;2023-07-29T05:13:16;1.93;;;1.73;;
11763;SDS011;5939;56.522;14.950;2023-07-29T05:15:42;1.90;;;1.63;;
11763;SDS011;5939;56.522;14.950;2023-07-29T05:18:08;3.10;;;2.10;;
11763;SDS011;5939;56.522;14.950;2023-07-29T05:20:34;1.70;;;1.60;;
11763;SDS011;5939;56.522;14.950;2023-07-29T05:22:59;1.90;;;1.77;;
11763;SDS011;5939;56.522;14.950;2023-07-29T05:25:25;1.80;;;1.70;;
11763;SDS011;5939;56.522;14.950;2023-07-29T05:27:51;2.27;;;1.70;;
11763;SDS011;5939;56.522;14.950;2023-07-29T05:30:17;2.27;;;1.60;;
11763;SDS011;5939;56.522;14.950;2023-07-29T05:32:43;1.60;;;1.50;;
11763;SDS011;5939;56.522;14.950;2023-07-29T05:35:08;2.40;;;1.57;;
11763;SDS011;5939;56.522;14.950;2023-07-29T05:37:37;2.13;;;1.60;;
11763;SDS011;5939;56.522;14.950;2023-07-29T05:40:05;1.60;;;1.50;;
11763;SDS011;5939;56.522;14.950;2023-07-29T05:42:32;1.50;;;1.40;;
11763;SDS011;5939;56.522;14.950;2023-07-29T05:44:58;1.80;;;1.67;;
11763;SDS011;5939;56.522;14.950;2023-07-29T05:47:23;2.40;;;1.70;;
11763;SDS011;5939;56.522;14.950;2023-07-29T05:49:49;2.93;;;1.93;;
11763;SDS011;5939;56.522;14.950;2023-07-29T05:52:15;1.90;;;1.70;;
11763;SDS011;5939;56.522;14.950;2023-07-29T05:54:41;1.97;;;1.80;;
11763;SDS011;5939;56.522;14.950;2023-07-29T05:57:08;2.23;;;1.63;;
11763;SDS011;5939;56.522;14.950;2023-07-29T05:59:34;2.07;;;1.80;;
11763;SDS011;5939;56.522;14.950;2023-07-29T06:02:00;4.07;;;1.90;;
11763;SDS011;5939;56.522;14.950;2023-07-29T06:04:25;1.70;;;1.60;;
11763;SDS011;5939;56.522;14.950;2023-07-29T06:06:51;2.20;;;2.00;;
11763;SDS011;5939;56.522;14.950;2023-07-29T06:09:16;1.90;;;1.70;;
11763;SDS011;5939;56.522;14.950;2023-07-29T06:11:42;3.23;;;1.90;;
11763;SDS011;5939;56.522;14.950;2023-07-29T06:14:08;2.10;;;1.70;;
11763;SDS011;5939;56.522;14.950;2023-07-29T06:16:33;2.80;;;1.70;;
11763;SDS011;5939;56.522;14.950;2023-07-29T06:18:59;2.17;;;1.60;;
11763;SDS011;5939;56.522;14.950;2023-07-29T06:21:25;1.90;;;1.80;;
11763;SDS011;5939;56.522;14.950;2023-07-29T06:23:50;2.00;;;1.70;;
11763;SDS011;5939;56.522;14.950;2023-07-29T06:26:16;2.67;;;1.87;;
11763;SDS011;5939;56.522;14.950;2023-07-29T06:28:42;1.93;;;1.73;;
11763;SDS011;5939;56.522;14.950;2023-07-29T06:31:07;2.40;;;1.63;;
11763;SDS011;5939;56.522;14.950;2023-07-29T06:33:33;2.40;;;1.60;;
11763;SDS011;5939;56.522;14.950;2023-07-29T06:35:58;1.80;;;1.70;;
11763;SDS011;5939;56.522;14.950;2023-07-29T06:38:24;2.27;;;1.97;;
11763;SDS011;5939;56.522;14.950;2023-07-29T06:40:50;2.07;;;1.87;;
11763;SDS011;5939;56.522;14.950;2023-07-29T06:43:16;2.30;;;1.77;;
11763;SDS011;5939;56.522;14.950;2023-07-29T06:45:42;5.10;;;1.97;;
11763;SDS011;5939;56.522;14.950;2023-07-29T06:48:07;2.00;;;1.80;;
11763;SDS011;5939;56.522;14.950;2023-07-29T06:50:33;2.10;;;1.90;;
11763;SDS011;5939;56.522;14.950;2023-07-29T06:52:59;2.73;;;2.03;;
11763;SDS011;5939;56.522;14.950;2023-07-29T06:55:24;2.10;;;1.90;;
11763;SDS011;5939;56.522;14.950;2023-07-29T06:57:50;2.30;;;2.03;;
11763;SDS011;5939;56.522;14.950;2023-07-29T07:00:16;2.90;;;1.97;;
11763;SDS011;5939;56.522;14.950;2023-07-29T07:02:42;3.93;;;1.90;;
11763;SDS011;5939;56.522;14.950;2023-07-29T07:05:07;1.80;;;1.70;;
11763;SDS011;5939;56.522;14.950;2023-07-29T07:07:33;2.23;;;1.70;;
11763;SDS011;5939;56.522;14.950;2023-07-29T07:09:59;3.53;;;1.80;;
11763;SDS011;5939;56.522;14.950;2023-07-29T07:12:24;1.70;;;1.60;;
11763;SDS011;5939;56.522;14.950;2023-07-29T07:14:50;1.83;;;1.70;;
11763;SDS011;5939;56.522;14.950;2023-07-29T07:17:16;1.90;;;1.70;;
11763;SDS011;5939;56.522;14.950;2023-07-29T07:19:41;2.03;;;1.60;;
11763;SDS011;5939;56.522;14.950;2023-07-29T07:22:07;1.90;;;1.70;;
11763;SDS011;5939;56.522;14.950;2023-07-29T07:24:32;1.57;;;1.47;;
11763;SDS011;5939;56.522;14.950;2023-07-29T07:26:58;2.57;;;1.80;;
11763;SDS011;5939;56.522;14.950;2023-07-29T07:29:24;1.87;;;1.50;;
11763;SDS011;5939;56.522;14.950;2023-07-29T07:31:50;1.97;;;1.63;;
11763;SDS011;5939;56.522;14.950;2023-07-29T07:34:18;2.00;;;1.80;;
11763;SDS011;5939;56.522;14.950;2023-07-29T07:36:44;1.60;;;1.50;;
11763;SDS011;5939;56.522;14.950;2023-07-29T07:39:10;3.30;;;1.40;;
11763;SDS011;5939;56.522;14.950;2023-07-29T07:41:35;2.00;;;1.77;;
11763;SDS011;5939;56.522;14.950;2023-07-29T07:44:01;1.87;;;1.67;;
11763;SDS011;5939;56.522;14.950;2023-07-29T07:46:28;1.70;;;1.60;;
11763;SDS011;5939;56.522;14.950;2023-07-29T07:48:53;2.10;;;1.50;;
11763;SDS011;5939;56.522;14.950;2023-07-29T07:51:19;1.50;;;1.40;;
11763;SDS011;5939;56.522;14.950;2023-07-29T07:53:45;1.73;;;1.63;;
11763;SDS011;5939;56.522;14.950;2023-07-29T07:56:10;1.50;;;1.40;;
11763;SDS011;5939;56.522;14.950;2023-07-29T07:58:36;1.63;;;1.40;;
11763;SDS011;5939;56.522;14.950;2023-07-29T08:01:04;2.43;;;1.73;;
11763;SDS011;5939;56.522;14.950;2023-07-29T08:03:31;2.73;;;1.40;;
11763;SDS011;5939;56.522;14.950;2023-07-29T08:05:57;1.43;;;1.33;;
11763;SDS011;5939;56.522;14.950;2023-07-29T08:08:23;2.27;;;1.63;;
11763;SDS011;5939;56.522;14.950;2023-07-29T08:10:50;1.70;;;1.60;;
11763;SDS011;5939;56.522;14.950;2023-07-29T08:13:17;1.43;;;1.33;;
11763;SDS011;5939;56.522;14.950;2023-07-29T08:15:45;1.67;;;1.57;;
11763;SDS011;5939;56.522;14.950;2023-07-29T08:18:15;1.70;;;1.60;;
11763;SDS011;5939;56.522;14.950;2023-07-29T08:20:41;1.90;;;1.60;;
11763;SDS011;5939;56.522;14.950;2023-07-29T08:23:16;1.77;;;1.40;;
11763;SDS011;5939;56.522;14.950;2023-07-29T08:25:41;1.40;;;1.30;;
11763;SDS011;5939;56.522;14.950;2023-07-29T08:28:07;1.70;;;1.57;;
11763;SDS011;5939;56.522;14.950;2023-07-29T08:30:32;1.60;;;1.50;;
11763;SDS011;5939;56.522;14.950;2023-07-29T08:32:58;2.30;;;1.63;;
11763;SDS011;5939;56.522;14.950;2023-07-29T08:35:24;1.80;;;1.70;;
11763;SDS011;5939;56.522;14.950;2023-07-29T08:37:49;1.70;;;1.60;;
11763;SDS011;5939;56.522;14.950;2023-07-29T08:40:15;2.57;;;1.60;;
11763;SDS011;5939;56.522;14.950;2023-07-29T08:42:41;2.10;;;1.40;;
11763;SDS011;5939;56.522;14.950;2023-07-29T08:45:10;1.73;;;1.60;;
11763;SDS011;5939;56.522;14.950;2023-07-29T08:47:37;2.27;;;1.90;;
11763;SDS011;5939;56.522;14.950;2023-07-29T08:50:02;2.40;;;1.60;;
11763;SDS011;5939;56.522;14.950;2023-07-29T08:52:29;1.50;;;1.40;;
11763;SDS011;5939;56.522;14.950;2023-07-29T08:54:54;1.67;;;1.57;;
11763;SDS011;5939;56.522;14.950;2023-07-29T08:57:21;1.80;;;1.70;;
11763;SDS011;5939;56.522;14.950;2023-07-29T08:59:48;1.63;;;1.50;;
11763;SDS011;5939;56.522;14.950;2023-07-29T09:02:14;2.67;;;1.77;;
11763;SDS011;5939;56.522;14.950;2023-07-29T09:04:39;1.70;;;1.60;;
11763;SDS011;5939;56.522;14.950;2023-07-29T09:07:05;3.20;;;1.67;;
11763;SDS011;5939;56.522;14.950;2023-07-29T09:09:32;2.00;;;1.80;;
11763;SDS011;5939;56.522;14.950;2023-07-29T09:11:58;2.03;;;1.80;;
11763;SDS011;5939;56.522;14.950;2023-07-29T09:14:23;3.00;;;2.03;;
11763;SDS011;5939;56.522;14.950;2023-07-29T09:16:49;1.97;;;1.77;;
11763;SDS011;5939;56.522;14.950;2023-07-29T09:19:15;3.07;;;2.30;;
11763;SDS011;5939;56.522;14.950;2023-07-29T09:21:41;6.00;;;1.80;;
11763;SDS011;5939;56.522;14.950;2023-07-29T09:24:07;2.23;;;1.80;;
11763;SDS011;5939;56.522;14.950;2023-07-29T09:26:33;2.00;;;1.80;;
11763;SDS011;5939;56.522;14.950;2023-07-29T09:28:59;2.50;;;2.00;;
11763;SDS011;5939;56.522;14.950;2023-07-29T09:31:26;2.43;;;1.80;;
11763;SDS011;5939;56.522;14.950;2023-07-29T09:34:00;2.93;;;2.63;;
11763;SDS011;5939;56.522;14.950;2023-07-29T09:36:29;2.73;;;2.10;;
11763;SDS011;5939;56.522;14.950;2023-07-29T09:38:56;2.27;;;2.00;;
11763;SDS011;5939;56.522;14.950;2023-07-29T09:41:26;2.20;;;2.00;;
11763;SDS011;5939;56.522;14.950;2023-07-29T09:43:59;2.60;;;2.17;;
11763;SDS011;5939;56.522;14.950;2023-07-29T09:46:31;2.30;;;2.10;;
11763;SDS011;5939;56.522;14.950;2023-07-29T09:48:59;2.47;;;2.27;;
11763;SDS011;5939;56.522;14.950;2023-07-29T09:51:24;2.77;;;2.27;;
11763;SDS011;5939;56.522;14.950;2023-07-29T09:53:50;2.30;;;2.10;;
11763;SDS011;5939;56.522;14.950;2023-07-29T09:56:23;2.70;;;2.27;;
11763;SDS011;5939;56.522;14.950;2023-07-29T09:58:51;2.50;;;2.30;;
11763;SDS011;5939;56.522;14.950;2023-07-29T10:01:17;2.77;;;1.67;;
11763;SDS011;5939;56.522;14.950;2023-07-29T10:03:44;2.30;;;2.10;;
11763;SDS011;5939;56.522;14.950;2023-07-29T10:06:10;2.53;;;2.27;;
11763;SDS011;5939;56.522;14.950;2023-07-29T10:08:37;2.30;;;2.10;;
11763;SDS011;5939;56.522;14.950;2023-07-29T10:11:07;4.07;;;2.10;;
11763;SDS011;5939;56.522;14.950;2023-07-29T10:13:34;2.50;;;2.30;;
11763;SDS011;5939;56.522;14.950;2023-07-29T10:16:00;3.10;;;2.37;;
11763;SDS011;5939;56.522;14.950;2023-07-29T10:18:30;2.53;;;2.27;;
11763;SDS011;5939;56.522;14.950;2023-07-29T10:20:58;2.73;;;2.33;;
11763;SDS011;5939;56.522;14.950;2023-07-29T10:23:25;2.87;;;2.17;;
11763;SDS011;5939;56.522;14.950;2023-07-29T10:25:57;2.90;;;2.30;;
11763;SDS011;5939;56.522;14.950;2023-07-29T10:28:25;3.57;;;2.53;;
11763;SDS011;5939;56.522;14.950;2023-07-29T10:30:54;3.40;;;2.67;;
11763;SDS011;5939;56.522;14.950;2023-07-29T10:33:21;2.37;;;2.17;;
11763;SDS011;5939;56.522;14.950;2023-07-29T10:35:46;2.40;;;2.10;;
11763;SDS011;5939;56.522;14.950;2023-07-29T10:38:12;3.43;;;2.43;;
11763;SDS011;5939;56.522;14.950;2023-07-29T10:40:46;2.30;;;2.10;;
11763;SDS011;5939;56.522;14.950;2023-07-29T10:43:23;2.53;;;2.30;;
11763;SDS011;5939;56.522;14.950;2023-07-29T10:45:57;3.40;;;2.50;;
11763;SDS011;5939;56.522;14.950;2023-07-29T10:48:40;2.90;;;2.60;;
11763;SDS011;5939;56.522;14.950;2023-07-29T10:51:40;4.73;;;2.23;;
11763;SDS011;5939;56.522;14.950;2023-07-29T10:53:59;2.57;;;2.17;;
11763;SDS011;5939;56.522;14.950;2023-07-29T10:58:58;4.47;;;2.37;;
11763;SDS011;5939;56.522;14.950;2023-07-29T11:01:54;2.97;;;2.17;;
11763;SDS011;5939;56.522;14.950;2023-07-29T11:04:24;2.27;;;2.07;;
11763;SDS011;5939;56.522;14.950;2023-07-29T11:15:20;3.47;;;2.30;;
11763;SDS011;5939;56.522;14.950;2023-07-29T11:17:59;2.60;;;2.40;;
11763;SDS011;5939;56.522;14.950;2023-07-29T11:20:32;3.73;;;2.30;;
11763;SDS011;5939;56.522;14.950;2023-07-29T11:22:59;3.40;;;2.37;;
11763;SDS011;5939;56.522;14.950;2023-07-29T11:25:27;4.30;;;2.60;;
11763;SDS011;5939;56.522;14.950;2023-07-29T11:27:54;2.67;;;2.47;;
11763;SDS011;5939;56.522;14.950;2023-07-29T11:30:21;3.13;;;2.17;;
11763;SDS011;5939;56.522;14.950;2023-07-29T11:32:54;3.17;;;2.33;;
11763;SDS011;5939;56.522;14.950;2023-07-29T11:35:20;2.97;;;2.33;;
11763;SDS011;5939;56.522;14.950;2023-07-29T11:37:50;4.40;;;2.83;;
11763;SDS011;5939;56.522;14.950;2023-07-29T11:40:17;2.97;;;2.33;;
11763;SDS011;5939;56.522;14.950;2023-07-29T11:42:45;2.83;;;2.37;;
11763;SDS011;5939;56.522;14.950;2023-07-29T11:45:12;2.20;;;2.00;;
11763;SDS011;5939;56.522;14.950;2023-07-29T11:47:38;2.63;;;2.20;;
11763;SDS011;5939;56.522;14.950;2023-07-29T11:50:05;2.80;;;2.50;;
11763;SDS011;5939;56.522;14.950;2023-07-29T11:52:39;2.43;;;2.20;;
11763;SDS011;5939;56.522;14.950;2023-07-29T11:55:06;2.57;;;2.37;;
11763;SDS011;5939;56.522;14.950;2023-07-29T11:57:33;2.30;;;2.10;;
11763;SDS011;5939;56.522;14.950;2023-07-29T12:00:05;2.67;;;2.20;;
11763;SDS011;5939;56.522;14.950;2023-07-29T12:02:36;3.57;;;2.30;;
11763;SDS011;5939;56.522;14.950;2023-07-29T12:05:07;2.13;;;1.97;;
11763;SDS011;5939;56.522;14.950;2023-07-29T12:07:34;3.60;;;2.27;;
11763;SDS011;5939;56.522;14.950;2023-07-29T12:10:00;3.37;;;2.30;;
11763;SDS011;5939;56.522;14.950;2023-07-29T12:12:28;2.33;;;2.10;;
11763;SDS011;5939;56.522;14.950;2023-07-29T12:14:54;2.40;;;2.20;;
11763;SDS011;5939;56.522;14.950;2023-07-29T12:17:20;2.77;;;1.90;;
11763;SDS011;5939;56.522;14.950;2023-07-29T12:19:46;2.67;;;2.33;;
11763;SDS011;5939;56.522;14.950;2023-07-29T12:22:11;3.60;;;2.07;;
11763;SDS011;5939;56.522;14.950;2023-07-29T12:24:42;2.20;;;2.00;;
11763;SDS011;5939;56.522;14.950;2023-07-29T12:27:11;2.47;;;2.10;;
11763;SDS011;5939;56.522;14.950;2023-07-29T12:29:42;2.33;;;2.07;;
11763;SDS011;5939;56.522;14.950;2023-07-29T12:32:08;2.30;;;2.10;;
11763;SDS011;5939;56.522;14.950;2023-07-29T12:34:36;2.30;;;2.10;;
11763;SDS011;5939;56.522;14.950;2023-07-29T12:37:03;2.87;;;1.93;;
11763;SDS011;5939;56.522;14.950;2023-07-29T12:39:30;2.20;;;2.00;;
11763;SDS011;5939;56.522;14.950;2023-07-29T12:41:58;2.23;;;2.03;;
11763;SDS011;5939;56.522;14.950;2023-07-29T12:44:25;2.30;;;2.00;;
11763;SDS011;5939;56.522;14.950;2023-07-29T12:46:52;2.10;;;1.90;;
11763;SDS011;5939;56.522;14.950;2023-07-29T12:49:18;2.20;;;2.00;;
11763;SDS011;5939;56.522;14.950;2023-07-29T12:51:43;2.23;;;2.03;;
11763;SDS011;5939;56.522;14.950;2023-07-29T12:54:09;2.23;;;2.03;;
11763;SDS011;5939;56.522;14.950;2023-07-29T12:56:35;2.57;;;1.93;;
11763;SDS011;5939;56.522;14.950;2023-07-29T12:59:01;2.93;;;2.30;;
11763;SDS011;5939;56.522;14.950;2023-07-29T13:01:27;2.40;;;2.20;;
11763;SDS011;5939;56.522;14.950;2023-07-29T13:03:53;2.73;;;2.20;;
11763;SDS011;5939;56.522;14.950;2023-07-29T13:06:20;2.30;;;2.10;;
11763;SDS011;5939;56.522;14.950;2023-07-29T13:08:46;1.87;;;1.77;;
11763;SDS011;5939;56.522;14.950;2023-07-29T13:11:12;2.30;;;2.10;;
11763;SDS011;5939;56.522;14.950;2023-07-29T13:13:38;3.17;;;2.30;;
11763;SDS011;5939;56.522;14.950;2023-07-29T13:16:04;2.63;;;2.20;;
11763;SDS011;5939;56.522;14.950;2023-07-29T13:18:29;2.90;;;2.00;;
11763;SDS011;5939;56.522;14.950;2023-07-29T13:20:55;2.97;;;2.00;;
11763;SDS011;5939;56.522;14.950;2023-07-29T13:23:21;2.33;;;2.00;;
11763;SDS011;5939;56.522;14.950;2023-07-29T13:25:47;2.67;;;1.90;;
11763;SDS011;5939;56.522;14.950;2023-07-29T13:28:12;2.27;;;2.07;;
11763;SDS011;5939;56.522;14.950;2023-07-29T13:30:39;2.10;;;1.90;;
11763;SDS011;5939;56.522;14.950;2023-07-29T13:33:05;2.30;;;1.80;;
11763;SDS011;5939;56.522;14.950;2023-07-29T13:35:31;2.60;;;2.17;;
11763;SDS011;5939;56.522;14.950;2023-07-29T13:37:57;2.57;;;2.00;;
11763;SDS011;5939;56.522;14.950;2023-07-29T13:40:23;2.30;;;2.10;;
11763;SDS011;5939;56.522;14.950;2023-07-29T13:42:48;2.10;;;1.90;;
11763;SDS011;5939;56.522;14.950;2023-07-29T13:45:14;3.67;;;2.27;;
11763;SDS011;5939;56.522;14.950;2023-07-29T13:47:40;2.67;;;2.30;;
11763;SDS011;5939;56.522;14.950;2023-07-29T13:50:05;2.53;;;2.30;;
11763;SDS011;5939;56.522;14.950;2023-07-29T13:52:33;2.20;;;2.00;;
11763;SDS011;5939;56.522;14.950;2023-07-29T13:54:58;2.10;;;1.90;;
11763;SDS011;5939;56.522;14.950;2023-07-29T13:57:24;2.67;;;2.13;;
11763;SDS011;5939;56.522;14.950;2023-07-29T13:59:50;2.23;;;2.03;;
11763;SDS011;5939;56.522;14.950;2023-07-29T14:02:15;2.10;;;1.90;;
11763;SDS011;5939;56.522;14.950;2023-07-29T14:04:41;2.30;;;2.10;;
11763;SDS011;5939;56.522;14.950;2023-07-29T14:07:07;2.43;;;2.03;;
11763;SDS011;5939;56.522;14.950;2023-07-29T14:09:32;2.43;;;2.23;;
11763;SDS011;5939;56.522;14.950;2023-07-29T14:11:58;2.10;;;1.90;;
11763;SDS011;5939;56.522;14.950;2023-07-29T14:14:23;2.37;;;2.17;;
11763;SDS011;5939;56.522;14.950;2023-07-29T14:16:49;2.50;;;2.00;;
11763;SDS011;5939;56.522;14.950;2023-07-29T14:19:15;2.23;;;2.03;;
11763;SDS011;5939;56.522;14.950;2023-07-29T14:21:40;3.03;;;2.30;;
11763;SDS011;5939;56.522;14.950;2023-07-29T14:24:06;2.33;;;2.00;;
11763;SDS011;5939;56.522;14.950;2023-07-29T14:26:32;2.40;;;2.20;;
11763;SDS011;5939;56.522;14.950;2023-07-29T14:28:57;2.33;;;2.03;;
11763;SDS011;5939;56.522;14.950;2023-07-29T14:31:23;2.07;;;1.90;;
11763;SDS011;5939;56.522;14.950;2023-07-29T14:33:48;3.37;;;2.20;;
11763;SDS011;5939;56.522;14.950;2023-07-29T14:36:15;2.47;;;2.27;;
11763;SDS011;5939;56.522;14.950;2023-07-29T14:38:41;2.40;;;2.20;;
11763;SDS011;5939;56.522;14.950;2023-07-29T14:41:07;2.50;;;2.17;;
11763;SDS011;5939;56.522;14.950;2023-07-29T14:43:33;3.00;;;2.20;;
11763;SDS011;5939;56.522;14.950;2023-07-29T14:46:00;2.17;;;1.97;;
11763;SDS011;5939;56.522;14.950;2023-07-29T14:48:26;3.00;;;2.20;;
11763;SDS011;5939;56.522;14.950;2023-07-29T14:50:52;2.40;;;2.10;;
11763;SDS011;5939;56.522;14.950;2023-07-29T14:53:18;2.70;;;2.50;;
11763;SDS011;5939;56.522;14.950;2023-07-29T14:55:43;2.40;;;2.20;;
11763;SDS011;5939;56.522;14.950;2023-07-29T14:58:09;3.10;;;2.47;;
11763;SDS011;5939;56.522;14.950;2023-07-29T15:00:35;2.60;;;2.40;;
11763;SDS011;5939;56.522;14.950;2023-07-29T15:03:00;2.60;;;2.40;;